Time;durP1;ratioP1;P1;durP2;ratioP2;P2;SDS_P1;SDS_P2;PMS_P1;PMS_P2;Temp;Humidity;BMP_temperature;BMP_pressure;BME280_temperature;BME280_humidity;BME280_pressure;Samples;Min_cycle;Max_cycle;Signal;HPM_P1;HPM_P2
2022/04/14 00:00:19;;;;;;;7.05;5.40;;;17.20;65.60;;;;;;5093057;28;20222;-85
2022/04/14 00:02:45;;;;;;;7.05;5.20;;;17.30;65.50;;;;;;5091329;28;20176;-85
2022/04/14 00:05:11;;;;;;;9.10;5.55;;;17.30;65.30;;;;;;5089013;28;20192;-86
2022/04/14 00:07:36;;;;;;;7.60;5.25;;;17.40;65.10;;;;;;5089226;28;20190;-85
2022/04/14 00:10:04;;;;;;;8.88;5.30;;;17.20;65.20;;;;;;5093263;28;20210;-85
2022/04/14 00:12:29;;;;;;;7.35;5.95;;;17.30;65.70;;;;;;5088232;28;20248;-85
2022/04/14 00:14:55;;;;;;;7.18;5.78;;;17.20;66.20;;;;;;5087685;28;20189;-85
2022/04/14 00:17:21;;;;;;;8.13;6.18;;;17.10;66.20;;;;;;5095917;28;20221;-85
2022/04/14 00:19:46;;;;;;;6.18;5.57;;;17.10;65.90;;;;;;5086929;28;20293;-85
2022/04/14 00:22:12;;;;;;;6.55;5.20;;;17.10;65.80;;;;;;5077805;28;20175;-85
2022/04/14 00:24:38;;;;;;;6.88;5.30;;;17.20;65.60;;;;;;5083651;28;20208;-85
2022/04/14 00:27:03;;;;;;;10.27;5.80;;;17.20;65.50;;;;;;5095767;28;20823;-85
2022/04/14 00:29:30;;;;;;;8.70;5.90;;;17.10;65.80;;;;;;5089776;28;20205;-85
2022/04/14 00:31:55;;;;;;;8.77;6.20;;;17.00;66.30;;;;;;5094562;28;20182;-85
2022/04/14 00:34:21;;;;;;;6.10;5.47;;;16.90;66.80;;;;;;5093452;28;20337;-85
2022/04/14 00:36:47;;;;;;;8.48;5.80;;;16.90;67.10;;;;;;5093577;28;20242;-86
2022/04/14 00:39:13;;;;;;;5.75;5.20;;;17.00;66.70;;;;;;5093587;28;20192;-85
2022/04/14 00:41:39;;;;;;;10.77;6.17;;;16.90;67.10;;;;;;5099081;28;20346;-86
2022/04/14 00:44:05;;;;;;;9.87;5.97;;;16.90;67.30;;;;;;5109075;28;20204;-85
2022/04/14 00:46:31;;;;;;;9.63;5.63;;;16.80;67.00;;;;;;5111098;28;20206;-85
2022/04/14 00:48:58;;;;;;;7.57;5.50;;;16.80;67.00;;;;;;5074443;28;20193;-86
2022/04/14 00:51:23;;;;;;;7.13;5.57;;;16.70;67.90;;;;;;5097327;28;20228;-86
2022/04/14 00:53:49;;;;;;;8.77;6.20;;;16.70;68.00;;;;;;5094786;28;20194;-86
2022/04/14 00:56:15;;;;;;;9.37;5.77;;;16.40;69.20;;;;;;5098580;28;20220;-86
2022/04/14 00:58:41;;;;;;;9.00;5.53;;;16.30;69.20;;;;;;5098439;28;20186;-85
2022/04/14 01:01:08;;;;;;;6.37;5.43;;;16.30;69.00;;;;;;5100713;28;20215;-85
2022/04/14 01:03:35;;;;;;;8.40;5.43;;;16.30;69.20;;;;;;5093268;28;20179;-85
2022/04/14 01:06:02;;;;;;;9.87;5.67;;;16.30;69.10;;;;;;5088406;28;20187;-85
2022/04/14 01:08:29;;;;;;;9.90;6.60;;;16.30;68.90;;;;;;5100513;28;20178;-85
2022/04/14 01:10:57;;;;;;;8.27;5.47;;;16.40;69.20;;;;;;5079603;28;20215;-84
2022/04/14 01:13:23;;;;;;;8.80;5.40;;;16.30;69.40;;;;;;5082509;28;20190;-85
2022/04/14 01:15:49;;;;;;;9.23;5.43;;;16.20;69.30;;;;;;5110084;28;20198;-84
2022/04/14 01:18:15;;;;;;;6.57;5.40;;;16.30;69.40;;;;;;5101841;28;20187;-85
2022/04/14 01:20:42;;;;;;;9.27;6.07;;;16.30;69.00;;;;;;5093852;28;20229;-86
2022/04/14 01:23:10;;;;;;;9.67;5.40;;;16.20;69.30;;;;;;5096189;28;20195;-86
2022/04/14 01:25:37;;;;;;;7.93;5.63;;;16.10;69.90;;;;;;5091510;28;20194;-84
2022/04/14 01:28:04;;;;;;;8.20;5.27;;;16.00;70.10;;;;;;5078902;28;20634;-87
2022/04/14 01:30:31;;;;;;;6.17;5.57;;;16.10;69.90;;;;;;5088607;28;20206;-84
2022/04/14 01:32:57;;;;;;;6.50;5.43;;;16.20;69.10;;;;;;5092317;28;20223;-86
2022/04/14 01:35:24;;;;;;;8.17;5.13;;;16.30;68.80;;;;;;5090475;28;20215;-85
2022/04/14 01:37:50;;;;;;;7.13;5.63;;;16.30;68.80;;;;;;5098633;28;20194;-85
2022/04/14 01:40:16;;;;;;;6.43;5.43;;;16.30;68.60;;;;;;5079144;28;20229;-86
2022/04/14 01:42:41;;;;;;;7.80;5.43;;;16.30;69.20;;;;;;5103453;28;20674;-85
2022/04/14 01:45:10;;;;;;;6.83;5.63;;;16.10;69.30;;;;;;5087360;28;20232;-85
2022/04/14 01:47:44;;;;;;;8.23;5.40;;;16.10;69.50;;;;;;5090437;28;20191;-85
2022/04/14 01:50:12;;;;;;;6.70;5.70;;;16.00;70.10;;;;;;5090726;28;20203;-85
2022/04/14 01:52:39;;;;;;;6.43;5.67;;;16.00;70.50;;;;;;5094444;28;20205;-86
2022/04/14 01:55:06;;;;;;;9.60;5.70;;;15.90;70.60;;;;;;5093026;28;20241;-86
2022/04/14 01:57:32;;;;;;;7.87;5.40;;;15.90;70.70;;;;;;5090200;28;20187;-85
2022/04/14 02:00:03;;;;;;;6.33;5.67;;;15.90;70.20;;;;;;5091785;28;20217;-86
2022/04/14 02:02:30;;;;;;;8.23;5.87;;;15.90;70.80;;;;;;5091296;28;20179;-84
2022/04/14 02:04:55;;;;;;;5.53;5.03;;;15.80;71.00;;;;;;5104456;28;20194;-86
2022/04/14 02:07:21;;;;;;;9.93;5.83;;;15.90;71.10;;;;;;5075133;28;20284;-84
2022/04/14 02:09:46;;;;;;;8.23;5.90;;;15.90;70.80;;;;;;5097555;28;20282;-86
2022/04/14 02:12:12;;;;;;;9.00;5.87;;;15.90;71.20;;;;;;5089855;28;20195;-86
2022/04/14 02:14:39;;;;;;;6.93;5.50;;;15.80;71.00;;;;;;5072121;28;20194;-86
2022/04/14 02:17:05;;;;;;;7.20;5.37;;;15.80;71.40;;;;;;5096293;28;20446;-86
2022/04/14 02:19:31;;;;;;;6.27;5.37;;;15.90;70.70;;;;;;5093617;28;20218;-85
2022/04/14 02:22:00;;;;;;;7.37;5.40;;;15.60;72.20;;;;;;5091826;28;20213;-86
2022/04/14 02:24:26;;;;;;;7.97;5.60;;;15.60;72.50;;;;;;5087113;28;20179;-83
2022/04/14 02:26:55;;;;;;;7.37;5.20;;;15.70;72.10;;;;;;5094619;28;20210;-85
2022/04/14 02:29:21;;;;;;;6.20;5.60;;;15.60;72.80;;;;;;5082136;28;20254;-85
2022/04/14 02:31:46;;;;;;;8.30;6.13;;;15.60;72.50;;;;;;5090035;28;20734;-86
2022/04/14 02:34:12;;;;;;;7.70;6.07;;;15.50;72.90;;;;;;5094436;28;20696;-85
2022/04/14 02:36:38;;;;;;;7.93;6.50;;;15.50;73.30;;;;;;5086199;28;20293;-85
2022/04/14 02:39:04;;;;;;;8.03;5.67;;;15.50;73.40;;;;;;5107392;28;20186;-85
2022/04/14 02:41:30;;;;;;;7.13;5.63;;;15.60;72.80;;;;;;5097945;28;20207;-85
2022/04/14 02:43:56;;;;;;;7.73;5.93;;;15.60;72.50;;;;;;5094392;28;20757;-85
2022/04/14 02:46:21;;;;;;;10.37;6.20;;;15.60;73.10;;;;;;5093708;28;20195;-85
2022/04/14 02:48:47;;;;;;;7.10;5.47;;;15.50;73.80;;;;;;5087559;28;20196;-87
2022/04/14 02:51:13;;;;;;;6.53;5.80;;;15.40;74.40;;;;;;5075200;28;20719;-85
2022/04/14 02:53:38;;;;;;;7.50;6.13;;;15.50;73.60;;;;;;5091596;28;20200;-85
2022/04/14 02:56:05;;;;;;;9.50;6.40;;;15.60;73.10;;;;;;5093200;28;20221;-85
2022/04/14 02:58:32;;;;;;;7.73;6.00;;;15.60;72.90;;;;;;5087694;28;20190;-85
2022/04/14 03:00:58;;;;;;;8.27;5.60;;;15.60;73.10;;;;;;5085294;28;20203;-84
2022/04/14 03:03:25;;;;;;;6.90;5.60;;;15.70;72.70;;;;;;5091302;28;20183;-83
2022/04/14 03:05:51;;;;;;;7.47;5.73;;;15.70;72.50;;;;;;5074405;28;20199;-85
2022/04/14 03:08:18;;;;;;;6.37;5.77;;;15.80;73.00;;;;;;5095782;28;20179;-84
2022/04/14 03:10:47;;;;;;;8.17;5.80;;;15.70;72.20;;;;;;5110861;28;20214;-82
2022/04/14 03:13:12;;;;;;;9.93;5.93;;;15.70;72.40;;;;;;5106727;28;20190;-84
2022/04/14 03:15:38;;;;;;;7.13;5.63;;;15.60;72.20;;;;;;5105631;28;20299;-83
2022/04/14 03:18:05;;;;;;;7.93;6.23;;;15.60;72.90;;;;;;5081178;28;20206;-84
2022/04/14 03:20:32;;;;;;;7.90;5.63;;;15.50;73.20;;;;;;5095155;28;20240;-83
2022/04/14 03:22:58;;;;;;;6.60;5.80;;;15.50;73.40;;;;;;5101348;28;20208;-83
2022/04/14 03:25:24;;;;;;;7.43;5.50;;;15.60;72.90;;;;;;5072511;28;20191;-85
2022/04/14 03:27:54;;;;;;;6.40;5.77;;;15.50;72.60;;;;;;5092550;28;20243;-84
2022/04/14 03:30:20;;;;;;;7.03;5.60;;;15.30;73.00;;;;;;5093294;28;20274;-84
2022/04/14 03:32:46;;;;;;;6.20;5.60;;;15.20;73.50;;;;;;5069425;28;20274;-84
2022/04/14 03:35:14;;;;;;;7.63;6.30;;;15.20;73.90;;;;;;5105065;28;20230;-85
2022/04/14 03:37:40;;;;;;;8.63;5.77;;;15.20;73.80;;;;;;5090280;28;20209;-85
2022/04/14 03:40:07;;;;;;;8.00;6.27;;;15.00;74.70;;;;;;5090950;28;20280;-84
2022/04/14 03:42:35;;;;;;;5.93;5.37;;;14.90;75.30;;;;;;5094853;28;20217;-85
2022/04/14 03:45:02;;;;;;;10.23;5.50;;;14.90;75.10;;;;;;5099916;28;20277;-85
2022/04/14 03:47:28;;;;;;;6.87;5.87;;;14.90;74.90;;;;;;5092334;28;20683;-84
2022/04/14 03:49:54;;;;;;;7.07;6.03;;;14.90;75.30;;;;;;5092205;28;20301;-85
2022/04/14 03:52:20;;;;;;;9.30;6.33;;;14.70;76.00;;;;;;5085463;28;20218;-84
2022/04/14 03:54:52;;;;;;;8.10;6.30;;;14.50;76.80;;;;;;5095284;28;20194;-85
2022/04/14 03:57:17;;;;;;;9.10;6.07;;;14.30;78.70;;;;;;5082724;28;20179;-85
2022/04/14 03:59:43;;;;;;;9.47;5.73;;;14.30;79.20;;;;;;5094295;28;20281;-84
2022/04/14 04:02:09;;;;;;;7.60;5.93;;;14.30;79.50;;;;;;5095228;28;20233;-85
2022/04/14 04:04:34;;;;;;;6.50;5.90;;;14.40;78.90;;;;;;5091986;28;20190;-84
2022/04/14 04:07:00;;;;;;;8.43;5.43;;;14.50;78.30;;;;;;5091998;28;20226;-86
2022/04/14 04:09:26;;;;;;;7.03;5.60;;;14.70;77.80;;;;;;5093627;28;20226;-86
2022/04/14 04:11:53;;;;;;;9.43;6.37;;;14.80;77.00;;;;;;5090161;28;20180;-85
2022/04/14 04:14:19;;;;;;;9.50;5.70;;;14.80;76.20;;;;;;5089918;28;20218;-84
2022/04/14 04:16:45;;;;;;;6.87;6.10;;;14.70;76.50;;;;;;5078255;28;20210;-85
2022/04/14 04:19:11;;;;;;;7.77;6.10;;;14.40;78.80;;;;;;5074169;28;20530;-86
2022/04/14 04:21:37;;;;;;;7.83;5.90;;;14.40;78.50;;;;;;5096977;28;20230;-86
2022/04/14 04:24:03;;;;;;;6.93;5.97;;;14.50;78.30;;;;;;5092652;28;20197;-86
2022/04/14 04:26:31;;;;;;;7.17;5.37;;;14.50;78.40;;;;;;5090534;28;20194;-85
2022/04/14 04:28:57;;;;;;;7.73;6.13;;;14.40;77.30;;;;;;5095275;28;20225;-85
2022/04/14 04:31:23;;;;;;;12.57;6.20;;;14.40;77.60;;;;;;5094215;28;20213;-85
2022/04/14 04:33:51;;;;;;;11.93;6.47;;;14.30;78.30;;;;;;5095334;28;20202;-85
2022/04/14 04:36:17;;;;;;;12.43;6.27;;;14.20;79.00;;;;;;5093838;28;20654;-85
2022/04/14 04:38:43;;;;;;;8.33;5.90;;;14.20;79.80;;;;;;5094236;28;20215;-86
2022/04/14 04:41:09;;;;;;;6.30;5.70;;;14.20;78.60;;;;;;5094360;28;20229;-85
2022/04/14 04:43:35;;;;;;;10.53;5.87;;;14.10;79.10;;;;;;5090764;28;20179;-85
2022/04/14 04:46:00;;;;;;;9.17;6.03;;;14.00;79.40;;;;;;5071800;28;20239;-85
2022/04/14 04:48:26;;;;;;;8.33;6.10;;;14.00;79.40;;;;;;5089951;28;20265;-83
2022/04/14 04:50:52;;;;;;;6.33;5.73;;;13.90;79.40;;;;;;5088689;28;20209;-85
2022/04/14 04:53:21;;;;;;;7.57;5.80;;;14.00;79.30;;;;;;5089207;28;20186;-85
2022/04/14 04:55:46;;;;;;;7.27;5.40;;;14.10;78.90;;;;;;5073823;28;20194;-84
2022/04/14 04:58:12;;;;;;;6.87;5.97;;;14.10;78.70;;;;;;5056172;28;20201;-85
2022/04/14 05:00:38;;;;;;;7.10;5.53;;;14.10;78.50;;;;;;5089376;28;20244;-86
2022/04/14 05:03:11;;;;;;;7.70;5.50;;;14.10;78.90;;;;;;5087701;28;20661;-86
2022/04/14 05:05:38;;;;;;;8.80;6.23;;;14.20;77.80;;;;;;5087791;28;20214;-85
2022/04/14 05:08:05;;;;;;;10.50;6.73;;;14.20;77.80;;;;;;5090948;28;21045;-85
2022/04/14 05:10:32;;;;;;;7.90;5.73;;;14.10;77.80;;;;;;5080848;28;20212;-84
2022/04/14 05:12:59;;;;;;;7.40;5.40;;;14.10;78.10;;;;;;5090511;28;20624;-84
2022/04/14 05:15:24;;;;;;;5.50;5.00;;;14.10;78.10;;;;;;5086623;28;20181;-85
2022/04/14 05:17:50;;;;;;;6.73;5.73;;;14.20;77.50;;;;;;5091035;28;20761;-86
2022/04/14 05:20:16;;;;;;;8.93;6.13;;;14.20;77.60;;;;;;5084724;28;20228;-85
2022/04/14 05:22:41;;;;;;;6.30;5.13;;;14.30;77.20;;;;;;5092629;28;20273;-86
2022/04/14 05:25:07;;;;;;;6.47;5.77;;;14.20;77.70;;;;;;5088220;28;20198;-84
2022/04/14 05:27:33;;;;;;;12.40;5.70;;;14.20;77.60;;;;;;5096177;28;20212;-83
2022/04/14 05:29:59;;;;;;;7.60;5.57;;;14.30;77.50;;;;;;5065536;28;20210;-85
2022/04/14 05:32:24;;;;;;;7.17;6.23;;;14.20;78.00;;;;;;5064984;28;20645;-85
2022/04/14 05:34:50;;;;;;;9.47;6.10;;;14.00;79.30;;;;;;5083459;28;20207;-85
2022/04/14 05:37:16;;;;;;;9.33;5.90;;;14.10;79.80;;;;;;5073531;28;20223;-86
2022/04/14 05:39:41;;;;;;;8.80;6.00;;;14.10;79.20;;;;;;5080331;28;20316;-85
2022/04/14 05:42:07;;;;;;;16.37;7.73;;;14.20;79.40;;;;;;5085259;28;20592;-85
2022/04/14 05:44:33;;;;;;;9.73;6.10;;;14.20;79.20;;;;;;5089443;28;20207;-86
2022/04/14 05:46:58;;;;;;;12.60;6.37;;;14.20;79.20;;;;;;5072615;28;20187;-84
2022/04/14 05:49:24;;;;;;;25.47;7.53;;;14.30;79.40;;;;;;5072768;28;20443;-83
2022/04/14 05:51:50;;;;;;;31.27;13.60;;;14.30;80.10;;;;;;5092710;28;20190;-85
2022/04/14 05:54:18;;;;;;;9.50;7.00;;;14.40;79.80;;;;;;5092188;28;20201;-88
2022/04/14 05:56:44;;;;;;;9.43;6.70;;;14.30;80.50;;;;;;5089497;28;20194;-85
2022/04/14 05:59:16;;;;;;;7.70;6.60;;;14.40;80.00;;;;;;5091608;28;20195;-86
2022/04/14 06:01:43;;;;;;;8.47;5.87;;;14.50;79.40;;;;;;5076931;28;20221;-86
2022/04/14 06:04:08;;;;;;;8.67;5.80;;;14.40;81.00;;;;;;5091214;28;20692;-84
2022/04/14 06:06:34;;;;;;;9.00;5.90;;;14.30;81.50;;;;;;5097578;28;20184;-86
2022/04/14 06:08:59;;;;;;;7.57;5.60;;;14.50;80.70;;;;;;5094199;28;20380;-81
2022/04/14 06:11:26;;;;;;;11.37;6.40;;;14.60;79.80;;;;;;5110278;28;20215;-82
2022/04/14 06:13:52;;;;;;;11.67;6.13;;;14.70;80.80;;;;;;5109885;28;20187;-83
2022/04/14 06:16:18;;;;;;;10.60;6.57;;;14.80;80.80;;;;;;5110033;28;20271;-82
2022/04/14 06:18:43;;;;;;;11.00;6.77;;;14.80;81.50;;;;;;5096213;28;20214;-83
2022/04/14 06:21:09;;;;;;;9.30;6.40;;;14.90;81.60;;;;;;5084326;28;20309;-84
2022/04/14 06:23:34;;;;;;;10.17;6.60;;;14.80;83.00;;;;;;5108699;28;20651;-84
2022/04/14 06:26:00;;;;;;;11.63;6.60;;;14.70;83.50;;;;;;5097123;28;20191;-86
2022/04/14 06:28:26;;;;;;;12.03;6.93;;;14.70;82.60;;;;;;5090643;28;20287;-84
2022/04/14 06:30:52;;;;;;;8.97;6.73;;;14.90;82.00;;;;;;5101406;28;20613;-84
2022/04/14 06:33:18;;;;;;;10.40;7.27;;;15.00;81.80;;;;;;5090338;28;20233;-84
2022/04/14 06:35:44;;;;;;;10.93;6.73;;;15.10;82.30;;;;;;5096018;28;20190;-85
2022/04/14 06:38:10;;;;;;;7.23;6.37;;;15.20;81.60;;;;;;5078508;28;20277;-85
2022/04/14 06:40:36;;;;;;;11.00;6.57;;;15.30;82.30;;;;;;5076634;28;20227;-85
2022/04/14 06:43:02;;;;;;;9.87;6.63;;;15.30;82.20;;;;;;5087448;28;20188;-83
2022/04/14 06:45:29;;;;;;;11.47;6.60;;;15.30;82.80;;;;;;5073011;28;20212;-84
2022/04/14 06:47:54;;;;;;;9.93;6.53;;;15.20;84.40;;;;;;5096552;28;20274;-84
2022/04/14 06:50:23;;;;;;;14.23;6.83;;;15.30;84.90;;;;;;5092195;28;20705;-83
2022/04/14 06:52:51;;;;;;;7.47;6.17;;;15.40;84.20;;;;;;5092809;28;20224;-84
2022/04/14 06:55:17;;;;;;;8.40;6.57;;;15.50;84.00;;;;;;5086293;28;20183;-84
2022/04/14 06:57:42;;;;;;;9.40;6.47;;;15.60;84.60;;;;;;5096109;28;20212;-85
2022/04/14 07:00:09;;;;;;;11.90;7.53;;;15.70;83.80;;;;;;5100135;28;20219;-83
2022/04/14 07:02:44;;;;;;;8.50;7.00;;;15.80;83.10;;;;;;5093954;28;20198;-85
2022/04/14 07:05:12;;;;;;;9.27;7.23;;;15.80;84.40;;;;;;5064111;28;20188;-84
2022/04/14 07:07:38;;;;;;;13.93;8.30;;;15.70;85.50;;;;;;5089149;28;20200;-85
2022/04/14 07:10:04;;;;;;;8.70;7.33;;;15.80;85.50;;;;;;5086264;28;20204;-84
2022/04/14 07:12:30;;;;;;;9.70;8.70;;;15.90;84.30;;;;;;5090285;28;20223;-84
2022/04/14 07:14:55;;;;;;;12.63;8.23;;;16.20;83.20;;;;;;5089303;28;20194;-84
2022/04/14 07:17:22;;;;;;;12.90;9.40;;;16.40;82.10;;;;;;5081275;28;20190;-85
2022/04/14 07:19:48;;;;;;;12.20;9.80;;;16.50;80.60;;;;;;5105007;28;20196;-85
2022/04/14 07:22:20;;;;;;;12.90;11.60;;;16.60;80.90;;;;;;5080167;28;20248;-85
2022/04/14 07:24:50;;;;;;;20.92;12.88;;;16.80;78.70;;;;;;5086143;28;20189;-85
2022/04/14 07:27:18;;;;;;;18.50;13.87;;;16.90;78.60;;;;;;5087871;28;20186;-85
2022/04/14 07:29:45;;;;;;;15.50;12.43;;;16.80;81.60;;;;;;5092826;28;20756;-85
2022/04/14 07:32:12;;;;;;;15.90;14.07;;;16.80;79.60;;;;;;5088377;28;20190;-86
2022/04/14 07:34:38;;;;;;;19.77;14.20;;;16.80;78.10;;;;;;5086417;28;20677;-85
2022/04/14 07:37:04;;;;;;;15.80;14.20;;;16.80;78.90;;;;;;5060881;28;20190;-86
2022/04/14 07:39:30;;;;;;;16.43;14.70;;;17.00;77.50;;;;;;5059525;28;20281;-86
2022/04/14 07:41:55;;;;;;;17.23;15.50;;;17.00;78.40;;;;;;5099241;28;20220;-85
2022/04/14 07:44:21;;;;;;;17.53;15.73;;;17.20;76.80;;;;;;5095885;28;20266;-84
2022/04/14 07:46:47;;;;;;;18.40;16.70;;;17.20;77.20;;;;;;5093714;28;20186;-83
2022/04/14 07:49:12;;;;;;;18.90;17.00;;;17.40;76.00;;;;;;5097645;28;20439;-85
2022/04/14 07:51:40;;;;;;;19.10;17.20;;;17.60;75.00;;;;;;5095930;28;20200;-83
2022/04/14 07:54:06;;;;;;;19.40;17.50;;;17.70;74.90;;;;;;5096109;28;20172;-85
2022/04/14 07:56:33;;;;;;;20.17;18.20;;;17.70;74.40;;;;;;5087947;28;20219;-85
2022/04/14 07:58:59;;;;;;;19.30;17.33;;;17.70;74.20;;;;;;5089438;28;20192;-85
2022/04/14 08:01:25;;;;;;;19.40;17.30;;;17.80;73.90;;;;;;5079388;28;20222;-84
2022/04/14 08:03:51;;;;;;;17.30;15.47;;;18.10;73.60;;;;;;5078008;28;20179;-86
2022/04/14 08:06:17;;;;;;;19.13;16.95;;;18.20;72.60;;;;;;5058843;28;20190;-86
2022/04/14 08:08:43;;;;;;;19.30;17.23;;;18.40;73.20;;;;;;5062272;28;20185;-86
2022/04/14 08:11:10;;;;;;;17.75;16.15;;;18.50;71.70;;;;;;5088493;28;20213;-86
2022/04/14 08:13:38;;;;;;;18.50;16.58;;;18.70;70.70;;;;;;5089436;28;20286;-86
2022/04/14 08:16:09;;;;;;;19.52;17.90;;;18.70;70.60;;;;;;5097434;28;20186;-86
2022/04/14 08:18:38;;;;;;;20.65;18.55;;;18.70;70.10;;;;;;5093808;28;20191;-84
2022/04/14 08:21:05;;;;;;;20.30;17.95;;;18.60;70.30;;;;;;5082074;28;20213;-83
2022/04/14 08:23:31;;;;;;;21.40;19.25;;;18.60;71.20;;;;;;5097399;28;20181;-84
2022/04/14 08:25:57;;;;;;;20.73;18.60;;;18.50;71.60;;;;;;5091716;28;20662;-84
2022/04/14 08:28:23;;;;;;;20.02;17.77;;;18.30;72.40;;;;;;5096258;28;20181;-84
2022/04/14 08:30:49;;;;;;;19.67;17.65;;;18.30;71.30;;;;;;5095734;28;20194;-84
2022/04/14 08:33:18;;;;;;;19.33;17.38;;;18.50;71.50;;;;;;5080865;28;20216;-84
2022/04/14 08:35:45;;;;;;;21.35;18.80;;;18.70;70.20;;;;;;5088762;28;20195;-82
2022/04/14 08:38:10;;;;;;;18.92;17.02;;;18.70;70.40;;;;;;5087642;28;20187;-83
2022/04/14 08:40:38;;;;;;;19.88;18.15;;;18.80;70.40;;;;;;5083206;28;20688;-85
2022/04/14 08:43:09;;;;;;;19.75;17.85;;;18.80;69.10;;;;;;5068633;28;20183;-85
2022/04/14 08:45:45;;;;;;;25.80;20.38;;;18.80;69.10;;;;;;5095723;28;20183;-85
2022/04/14 08:48:12;;;;;;;20.52;18.40;;;18.70;68.90;;;;;;5096060;28;20227;-84
2022/04/14 08:50:38;;;;;;;18.80;17.10;;;18.70;69.60;;;;;;5090201;28;20222;-84
2022/04/14 08:53:05;;;;;;;19.25;17.42;;;18.70;69.50;;;;;;5081206;28;20250;-84
2022/04/14 08:55:31;;;;;;;20.02;17.90;;;18.60;70.00;;;;;;5083552;28;20182;-83
2022/04/14 08:57:57;;;;;;;22.97;19.30;;;18.60;70.00;;;;;;5083772;28;20190;-85
2022/04/14 09:00:23;;;;;;;19.92;18.13;;;18.60;70.10;;;;;;5082372;28;20256;-84
2022/04/14 09:02:51;;;;;;;24.92;18.08;;;18.50;70.80;;;;;;5088363;28;20183;-83
2022/04/14 09:05:17;;;;;;;23.05;17.20;;;18.70;70.40;;;;;;5090477;28;20216;-84
2022/04/14 09:07:50;;;;;;;19.98;18.13;;;18.90;68.90;;;;;;5087330;28;20270;-83
2022/04/14 09:10:18;;;;;;;20.75;17.27;;;19.30;67.10;;;;;;5095092;28;20207;-82
2022/04/14 09:12:43;;;;;;;19.27;17.15;;;19.60;66.60;;;;;;5095133;28;20183;-84
2022/04/14 09:15:10;;;;;;;23.30;19.52;;;19.70;65.40;;;;;;5089550;28;20336;-81
2022/04/14 09:17:36;;;;;;;25.85;18.58;;;19.90;64.90;;;;;;5087015;28;21651;-82
2022/04/14 09:20:26;;;;;;;21.80;19.58;;;19.90;64.80;;;;;;5087651;28;20234;-83
2022/04/14 09:23:15;;;;;;;20.20;17.60;;;20.30;64.10;;;;;;5088604;28;20183;-82
2022/04/14 09:25:42;;;;;;;20.70;18.55;;;20.50;64.40;;;;;;5089531;28;20216;-83
2022/04/14 09:28:13;;;;;;;20.27;17.98;;;20.70;62.20;;;;;;5089462;28;20196;-83
2022/04/14 09:30:40;;;;;;;20.50;18.25;;;20.70;62.40;;;;;;5090739;28;20234;-83
2022/04/14 09:33:16;;;;;;;22.90;20.48;;;21.20;62.60;;;;;;5086899;28;20661;-83
2022/04/14 09:35:42;;;;;;;20.52;18.42;;;21.40;60.60;;;;;;5088044;28;20177;-84
2022/04/14 09:38:08;;;;;;;21.92;18.63;;;21.60;59.30;;;;;;5090147;28;20683;-84
2022/04/14 09:40:34;;;;;;;22.73;20.60;;;21.40;59.40;;;;;;5088285;28;20221;-84
2022/04/14 09:43:01;;;;;;;21.23;19.13;;;21.20;60.30;;;;;;5075768;28;20191;-83
2022/04/14 09:45:29;;;;;;;19.40;17.50;;;21.00;60.00;;;;;;5075206;28;20209;-83
2022/04/14 09:48:18;;;;;;;30.67;20.20;;;21.10;60.40;;;;;;5093405;28;20173;-83
2022/04/14 09:50:47;;;;;;;22.08;20.20;;;20.90;61.50;;;;;;5090973;28;20702;-84
2022/04/14 09:53:15;;;;;;;20.92;19.10;;;20.90;61.50;;;;;;5093918;28;20194;-83
2022/04/14 09:55:54;;;;;;;22.75;20.20;;;20.90;62.20;;;;;;5092531;28;20198;-83
2022/04/14 09:58:21;;;;;;;20.42;18.58;;;21.20;60.10;;;;;;5090867;28;20247;-83
2022/04/14 10:00:53;;;;;;;21.35;19.25;;;21.40;60.00;;;;;;5091630;28;20279;-83
2022/04/14 10:03:29;;;;;;;22.30;20.38;;;21.40;59.20;;;;;;5090901;28;20181;-81
2022/04/14 10:06:05;;;;;;;23.10;20.98;;;21.10;60.00;;;;;;5089124;28;20182;-83
2022/04/14 10:08:51;;;;;;;22.45;20.15;;;21.40;59.70;;;;;;5096169;28;20185;-81
2022/04/14 10:11:33;;;;;;;29.45;20.52;;;21.70;59.00;;;;;;5093345;28;20213;-81
2022/04/14 10:14:28;;;;;;;22.90;20.73;;;21.50;59.50;;;;;;5094266;28;20204;-81
2022/04/14 10:16:57;;;;;;;23.70;20.73;;;21.50;58.80;;;;;;5067808;28;20202;-83
2022/04/14 10:19:23;;;;;;;24.13;21.45;;;21.30;59.80;;;;;;5100048;28;20274;-81
2022/04/14 10:21:49;;;;;;;23.42;21.05;;;21.10;59.70;;;;;;5099130;28;20207;-83
2022/04/14 10:24:16;;;;;;;25.88;23.58;;;21.20;60.00;;;;;;5096596;28;20196;-83
2022/04/14 10:26:43;;;;;;;23.42;21.13;;;21.30;59.20;;;;;;5098468;28;20191;-81
2022/04/14 10:29:12;;;;;;;24.08;21.67;;;21.40;59.20;;;;;;5105422;28;20182;-81
2022/04/14 10:31:38;;;;;;;23.23;20.85;;;21.40;61.40;;;;;;5105693;28;20200;-82
2022/04/14 10:34:06;;;;;;;24.58;22.25;;;21.50;58.90;;;;;;5096254;28;20189;-82
2022/04/14 10:36:37;;;;;;;24.10;21.83;;;21.40;58.20;;;;;;5097012;28;20222;-83
2022/04/14 10:39:04;;;;;;;22.38;20.27;;;21.70;58.00;;;;;;5096753;28;20202;-80
2022/04/14 10:41:33;;;;;;;23.80;21.58;;;21.90;57.60;;;;;;5097858;28;20230;-80
2022/04/14 10:44:01;;;;;;;25.20;22.80;;;22.10;57.20;;;;;;5097848;28;20196;-81
2022/04/14 10:46:40;;;;;;;23.67;21.25;;;22.10;56.40;;;;;;5080279;28;20183;-81
2022/04/14 10:49:24;;;;;;;23.95;21.40;;;22.00;56.40;;;;;;5097302;28;20267;-82
2022/04/14 10:51:53;;;;;;;20.60;18.52;;;21.70;57.20;;;;;;5081150;28;20199;-81
2022/04/14 10:54:19;;;;;;;24.48;22.27;;;21.60;58.80;;;;;;5096433;28;20261;-81
2022/04/14 10:56:50;;;;;;;24.27;21.75;;;21.60;57.30;;;;;;5096849;28;20612;-83
2022/04/14 10:59:18;;;;;;;25.13;22.67;;;21.40;58.50;;;;;;5097448;28;20185;-80
2022/04/14 11:01:46;;;;;;;23.42;21.23;;;21.40;58.30;;;;;;5097909;28;20199;-83
2022/04/14 11:04:27;;;;;;;24.42;21.92;;;21.40;58.80;;;;;;5098882;28;20262;-83
2022/04/14 11:06:57;;;;;;;23.10;20.77;;;21.50;58.60;;;;;;5079350;28;20199;-82
2022/04/14 11:09:50;;;;;;;21.73;19.45;;;22.10;57.40;;;;;;5097190;28;20383;-84
2022/04/14 11:12:41;;;;;;;25.90;23.25;;;22.60;55.90;;;;;;5097261;28;20374;-83
2022/04/14 11:15:28;;;;;;;23.38;21.20;;;23.00;53.70;;;;;;5097913;28;20187;-82
2022/04/14 11:18:03;;;;;;;23.45;21.25;;;23.10;54.10;;;;;;5099744;28;20449;-84
2022/04/14 11:20:35;;;;;;;23.30;21.10;;;23.00;53.50;;;;;;5099145;28;20327;-83
2022/04/14 11:23:20;;;;;;;23.42;21.50;;;23.10;53.30;;;;;;5077368;28;20192;-80
2022/04/14 11:25:48;;;;;;;23.77;21.50;;;23.00;52.80;;;;;;5093981;28;20183;-81
2022/04/14 11:28:30;;;;;;;23.10;20.95;;;22.80;53.30;;;;;;5095295;28;20225;-82
2022/04/14 11:31:03;;;;;;;23.23;21.13;;;22.90;53.00;;;;;;5077090;28;20700;-83
2022/04/14 11:33:35;;;;;;;24.00;21.80;;;22.80;53.10;;;;;;5094619;28;20195;-81
2022/04/14 11:36:21;;;;;;;23.35;20.70;;;22.70;53.30;;;;;;5096377;28;20281;-82
2022/04/14 11:39:07;;;;;;;24.02;21.88;;;23.40;52.00;;;;;;5096448;28;20247;-82
2022/04/14 11:41:39;;;;;;;22.98;20.88;;;23.70;52.00;;;;;;5095095;28;20223;-81
2022/04/14 11:44:21;;;;;;;22.38;20.38;;;24.30;49.30;;;;;;5095453;28;20180;-80
2022/04/14 11:46:55;;;;;;;23.23;20.98;;;24.50;48.10;;;;;;5094761;28;20197;-83
2022/04/14 11:49:26;;;;;;;20.70;18.92;;;24.70;48.10;;;;;;5078157;28;20262;-83
2022/04/14 11:51:54;;;;;;;22.30;19.65;;;25.00;47.20;;;;;;5094675;28;20557;-82
2022/04/14 11:54:34;;;;;;;20.77;18.92;;;24.90;47.30;;;;;;5095083;28;20793;-83
2022/04/14 11:57:09;;;;;;;26.75;21.45;;;24.60;48.60;;;;;;5096319;28;20185;-82
2022/04/14 11:59:45;;;;;;;24.60;22.17;;;24.20;48.10;;;;;;5078978;28;20202;-82
2022/04/14 12:02:19;;;;;;;23.02;20.83;;;24.40;48.20;;;;;;5096776;28;20219;-82
2022/04/14 12:04:46;;;;;;;21.27;19.05;;;24.30;48.00;;;;;;5096429;28;20566;-82
2022/04/14 12:07:13;;;;;;;22.25;20.15;;;24.50;47.90;;;;;;5095370;28;20273;-81
2022/04/14 12:09:42;;;;;;;20.90;18.90;;;24.60;47.00;;;;;;5073103;28;20349;-84
2022/04/14 12:12:29;;;;;;;19.33;17.52;;;24.80;47.40;;;;;;5052359;28;20293;-84
2022/04/14 12:14:55;;;;;;;21.98;19.70;;;25.40;47.10;;;;;;5087395;28;20202;-84
2022/04/14 12:17:22;;;;;;;22.60;20.55;;;25.60;45.70;;;;;;5089442;28;20211;-84
2022/04/14 12:20:03;;;;;;;20.95;19.20;;;25.50;44.00;;;;;;5089961;28;20199;-84
2022/04/14 12:22:34;;;;;;;25.58;20.35;;;25.30;44.80;;;;;;5086367;28;20206;-83
2022/04/14 12:25:05;;;;;;;20.27;18.23;;;25.10;45.40;;;;;;5089240;28;20702;-84
2022/04/14 12:27:42;;;;;;;20.83;18.50;;;25.20;45.40;;;;;;5091711;28;20700;-84
2022/04/14 12:30:09;;;;;;;23.67;21.23;;;25.10;45.90;;;;;;5069468;28;20210;-82
2022/04/14 12:32:35;;;;;;;22.05;20.00;;;25.20;45.70;;;;;;5091225;28;20212;-82
2022/04/14 12:35:06;;;;;;;22.80;20.60;;;25.30;45.10;;;;;;5090886;28;20279;-84
2022/04/14 12:37:39;;;;;;;22.10;20.10;;;25.60;43.60;;;;;;5088806;28;20843;-82
2022/04/14 12:40:08;;;;;;;21.67;19.60;;;25.70;43.20;;;;;;5086302;28;20218;-84
2022/04/14 12:42:35;;;;;;;21.70;19.67;;;25.50;44.10;;;;;;5070416;28;20214;-84